Watertown, NY (13601)

3:06 PM EDT on September 28, 2016 (GMT -0400)
Watertown WWTP | | Change Station

Elev 426 ft 43.99 °N, 75.93 °W | Updated 14 minutes ago

Clear
Clear
76.5 °F
Feels Like 78 °F
N
6.0
Wind Variable Wind from ESE
Gusts 9.0 mph

Today
High -- | Low -- °F
--% Chance of Precip.
Yesterday
High -- | Low -- °F
Precip. -- in
Pressure 30.11 in
Visibility 10.0 miles
Clouds Clear
Heat Index 78 °F
Dew Point 52 °F
Humidity 42%
Rainfall 0.00 in
Snow Depth Not available.
6:58 AM 6:49 PM
Waning Crescent, 5% visible
METAR KART 281856Z AUTO 11009KT 10SM CLR 23/07 A3012 RMK AO2 SLP196 T02330072 $
Pressure 30.11 in
Visibility 10.0 miles
Clouds Clear
Heat Index 78 °F
Dew Point 52 °F
Humidity 42%
Rainfall 0.00 in
Snow Depth Not available.
6:58 AM 6:49 PM
Waning Crescent, 5% visible
METAR KART 281856Z AUTO 11009KT 10SM CLR 23/07 A3012 RMK AO2 SLP196 T02330072 $

10-Day Weather Forecast

Almanac

Astronomy

Sep. 28, 2016 Rise Set
Actual Time
Civil Twilight
Nautical Twilight
Astronomical Twilight
Moon
Length of Visible Light
Length of Day
Tomorrow will be .
, % of the Moon is Illuminated

Today's Extremes

State Highs State Lows

Community

WunderPhotos

Upload Photos

1,942,303 photos uploaded!

WunderBlog® & News

Nearby

Air Quality

  Air Quality AQ Index Pollutant
Not available.

Snow Depth

Station Depth Elevation

Earthquake Activity

City Distance Mag. Time & Date
Minimum magnitude displayed is 2.5.

Coastal Water Temperatures

Place Temperature

Stations

Nearby Weather Stations

Station Location Temp. Windchill Dew Point Humidity Wind Precip. Elev Updated Type
                   

Watches & Warnings

There are currently no watches in effect.